sensor_id;sensor_type;location;lat;lon;timestamp;temperature;humidity
11239;DHT22;5677;48.488;13.436;2023-09-08T00:00:48;20.50;66.50
11239;DHT22;5677;48.488;13.436;2023-09-08T00:03:15;20.50;66.50
11239;DHT22;5677;48.488;13.436;2023-09-08T00:05:42;20.50;66.50
11239;DHT22;5677;48.488;13.436;2023-09-08T00:08:09;20.50;66.50
11239;DHT22;5677;48.488;13.436;2023-09-08T00:10:36;20.50;66.50
11239;DHT22;5677;48.488;13.436;2023-09-08T00:13:04;20.50;66.50
11239;DHT22;5677;48.488;13.436;2023-09-08T00:15:33;20.50;66.50
11239;DHT22;5677;48.488;13.436;2023-09-08T00:18:03;20.40;65.30
11239;DHT22;5677;48.488;13.436;2023-09-08T00:20:30;20.50;65.40
11239;DHT22;5677;48.488;13.436;2023-09-08T00:22:57;20.50;66.50
11239;DHT22;5677;48.488;13.436;2023-09-08T00:25:24;20.50;66.50
11239;DHT22;5677;48.488;13.436;2023-09-08T00:27:51;20.40;66.50
11239;DHT22;5677;48.488;13.436;2023-09-08T00:30:18;20.40;66.40
11239;DHT22;5677;48.488;13.436;2023-09-08T00:32:45;20.40;66.50
11239;DHT22;5677;48.488;13.436;2023-09-08T00:35:13;20.40;66.50
11239;DHT22;5677;48.488;13.436;2023-09-08T00:37:40;20.40;66.50
11239;DHT22;5677;48.488;13.436;2023-09-08T00:40:08;20.40;66.50
11239;DHT22;5677;48.488;13.436;2023-09-08T00:42:36;20.40;65.40
11239;DHT22;5677;48.488;13.436;2023-09-08T00:45:04;20.40;66.50
11239;DHT22;5677;48.488;13.436;2023-09-08T00:47:31;20.40;65.50
11239;DHT22;5677;48.488;13.436;2023-09-08T00:49:59;20.40;66.50
11239;DHT22;5677;48.488;13.436;2023-09-08T00:52:28;20.40;66.30
11239;DHT22;5677;48.488;13.436;2023-09-08T00:54:58;20.40;66.60
11239;DHT22;5677;48.488;13.436;2023-09-08T00:57:25;20.40;65.40
11239;DHT22;5677;48.488;13.436;2023-09-08T00:59:53;20.40;66.60
11239;DHT22;5677;48.488;13.436;2023-09-08T01:02:20;20.40;65.50
11239;DHT22;5677;48.488;13.436;2023-09-08T01:04:49;20.40;65.50
11239;DHT22;5677;48.488;13.436;2023-09-08T01:07:16;20.40;66.60
11239;DHT22;5677;48.488;13.436;2023-09-08T01:09:46;20.30;65.50
11239;DHT22;5677;48.488;13.436;2023-09-08T01:12:14;20.30;65.60
11239;DHT22;5677;48.488;13.436;2023-09-08T01:14:42;20.30;65.60
11239;DHT22;5677;48.488;13.436;2023-09-08T01:17:09;20.30;66.70
11239;DHT22;5677;48.488;13.436;2023-09-08T01:19:38;20.30;66.70
11239;DHT22;5677;48.488;13.436;2023-09-08T01:25:36;20.30;65.60
11239;DHT22;5677;48.488;13.436;2023-09-08T01:28:08;20.30;65.60
11239;DHT22;5677;48.488;13.436;2023-09-08T01:30:36;20.30;66.80
11239;DHT22;5677;48.488;13.436;2023-09-08T01:33:04;20.30;66.80
11239;DHT22;5677;48.488;13.436;2023-09-08T01:35:31;20.30;66.70
11239;DHT22;5677;48.488;13.436;2023-09-08T01:37:59;20.30;66.60
11239;DHT22;5677;48.488;13.436;2023-09-08T01:40:26;20.30;66.80
11239;DHT22;5677;48.488;13.436;2023-09-08T01:42:54;20.30;66.80
11239;DHT22;5677;48.488;13.436;2023-09-08T01:45:21;20.30;66.80
11239;DHT22;5677;48.488;13.436;2023-09-08T01:47:48;20.30;66.80
11239;DHT22;5677;48.488;13.436;2023-09-08T01:50:15;20.30;66.90
11239;DHT22;5677;48.488;13.436;2023-09-08T01:52:47;20.30;66.90
11239;DHT22;5677;48.488;13.436;2023-09-08T01:55:14;20.30;66.90
11239;DHT22;5677;48.488;13.436;2023-09-08T01:57:41;20.30;66.90
11239;DHT22;5677;48.488;13.436;2023-09-08T02:00:12;20.30;66.90
11239;DHT22;5677;48.488;13.436;2023-09-08T02:02:39;20.20;65.70
11239;DHT22;5677;48.488;13.436;2023-09-08T02:05:07;20.20;65.70
11239;DHT22;5677;48.488;13.436;2023-09-08T02:07:34;20.20;66.80
11239;DHT22;5677;48.488;13.436;2023-09-08T02:10:01;20.20;66.80
11239;DHT22;5677;48.488;13.436;2023-09-08T02:12:28;20.20;66.80
11239;DHT22;5677;48.488;13.436;2023-09-08T02:14:55;20.20;66.80
11239;DHT22;5677;48.488;13.436;2023-09-08T02:17:23;20.20;66.90
11239;DHT22;5677;48.488;13.436;2023-09-08T02:19:50;20.20;66.90
11239;DHT22;5677;48.488;13.436;2023-09-08T02:22:18;20.30;67.00
11239;DHT22;5677;48.488;13.436;2023-09-08T02:24:45;20.20;66.90
11239;DHT22;5677;48.488;13.436;2023-09-08T02:27:12;20.20;66.90
11239;DHT22;5677;48.488;13.436;2023-09-08T02:29:39;20.20;66.90
11239;DHT22;5677;48.488;13.436;2023-09-08T02:32:06;20.20;67.70
11239;DHT22;5677;48.488;13.436;2023-09-08T02:34:35;20.20;66.90
11239;DHT22;5677;48.488;13.436;2023-09-08T02:37:03;20.20;65.80
11239;DHT22;5677;48.488;13.436;2023-09-08T02:39:32;20.20;67.00
11239;DHT22;5677;48.488;13.436;2023-09-08T02:41:59;20.20;67.00
11239;DHT22;5677;48.488;13.436;2023-09-08T02:44:26;20.20;67.00
11239;DHT22;5677;48.488;13.436;2023-09-08T02:46:54;20.10;67.00
11239;DHT22;5677;48.488;13.436;2023-09-08T02:49:21;20.20;67.00
11239;DHT22;5677;48.488;13.436;2023-09-08T02:51:50;20.20;67.00
11239;DHT22;5677;48.488;13.436;2023-09-08T02:54:17;20.20;67.00
11239;DHT22;5677;48.488;13.436;2023-09-08T02:56:43;20.20;67.00
11239;DHT22;5677;48.488;13.436;2023-09-08T02:59:10;20.20;67.00
11239;DHT22;5677;48.488;13.436;2023-09-08T03:01:37;20.20;67.10
11239;DHT22;5677;48.488;13.436;2023-09-08T03:04:05;20.20;67.00
11239;DHT22;5677;48.488;13.436;2023-09-08T03:06:32;20.20;67.00
11239;DHT22;5677;48.488;13.436;2023-09-08T03:09:02;20.10;66.00
11239;DHT22;5677;48.488;13.436;2023-09-08T03:11:29;20.10;67.10
11239;DHT22;5677;48.488;13.436;2023-09-08T03:13:56;20.10;67.10
11239;DHT22;5677;48.488;13.436;2023-09-08T03:16:23;20.10;67.20
11239;DHT22;5677;48.488;13.436;2023-09-08T03:18:50;20.10;67.20
11239;DHT22;5677;48.488;13.436;2023-09-08T03:21:17;20.10;67.10
11239;DHT22;5677;48.488;13.436;2023-09-08T03:23:44;20.10;67.10
11239;DHT22;5677;48.488;13.436;2023-09-08T03:26:13;20.10;66.10
11239;DHT22;5677;48.488;13.436;2023-09-08T03:28:42;20.10;67.20
11239;DHT22;5677;48.488;13.436;2023-09-08T03:31:09;20.10;66.00
11239;DHT22;5677;48.488;13.436;2023-09-08T03:33:36;20.10;66.10
11239;DHT22;5677;48.488;13.436;2023-09-08T03:36:04;20.10;67.10
11239;DHT22;5677;48.488;13.436;2023-09-08T03:38:31;20.10;67.20
11239;DHT22;5677;48.488;13.436;2023-09-08T03:40:58;20.10;67.20
11239;DHT22;5677;48.488;13.436;2023-09-08T03:43:26;20.10;67.20
11239;DHT22;5677;48.488;13.436;2023-09-08T03:45:53;20.10;67.20
11239;DHT22;5677;48.488;13.436;2023-09-08T03:48:20;20.10;67.20
11239;DHT22;5677;48.488;13.436;2023-09-08T03:50:47;20.10;67.20
11239;DHT22;5677;48.488;13.436;2023-09-08T03:53:14;20.10;67.20
11239;DHT22;5677;48.488;13.436;2023-09-08T03:55:41;20.00;67.10
11239;DHT22;5677;48.488;13.436;2023-09-08T03:58:08;20.10;67.20
11239;DHT22;5677;48.488;13.436;2023-09-08T04:00:37;20.10;67.20
11239;DHT22;5677;48.488;13.436;2023-09-08T04:03:04;20.10;67.20
11239;DHT22;5677;48.488;13.436;2023-09-08T04:05:31;20.10;67.20
11239;DHT22;5677;48.488;13.436;2023-09-08T04:07:58;20.10;67.20
11239;DHT22;5677;48.488;13.436;2023-09-08T04:10:25;20.00;67.10
11239;DHT22;5677;48.488;13.436;2023-09-08T04:12:52;20.00;67.10
11239;DHT22;5677;48.488;13.436;2023-09-08T04:15:19;20.00;67.20
11239;DHT22;5677;48.488;13.436;2023-09-08T04:17:47;20.00;67.20
11239;DHT22;5677;48.488;13.436;2023-09-08T04:20:15;20.00;67.20
11239;DHT22;5677;48.488;13.436;2023-09-08T04:22:42;20.00;66.10
11239;DHT22;5677;48.488;13.436;2023-09-08T04:25:09;20.00;67.20
11239;DHT22;5677;48.488;13.436;2023-09-08T04:27:36;20.00;67.00
11239;DHT22;5677;48.488;13.436;2023-09-08T04:30:04;20.00;67.20
11239;DHT22;5677;48.488;13.436;2023-09-08T04:32:32;20.00;66.10
11239;DHT22;5677;48.488;13.436;2023-09-08T04:35:00;20.00;67.30
11239;DHT22;5677;48.488;13.436;2023-09-08T04:37:27;20.00;67.30
11239;DHT22;5677;48.488;13.436;2023-09-08T04:39:55;20.00;67.30
11239;DHT22;5677;48.488;13.436;2023-09-08T04:42:23;20.00;67.30
11239;DHT22;5677;48.488;13.436;2023-09-08T04:44:50;20.00;67.30
11239;DHT22;5677;48.488;13.436;2023-09-08T04:47:17;20.00;67.30
11239;DHT22;5677;48.488;13.436;2023-09-08T04:49:44;20.00;66.20
11239;DHT22;5677;48.488;13.436;2023-09-08T04:52:13;20.00;67.30
11239;DHT22;5677;48.488;13.436;2023-09-08T04:54:40;20.00;67.30
11239;DHT22;5677;48.488;13.436;2023-09-08T04:57:07;20.00;67.30
11239;DHT22;5677;48.488;13.436;2023-09-08T04:59:34;20.00;67.30
11239;DHT22;5677;48.488;13.436;2023-09-08T05:02:02;19.90;67.30
11239;DHT22;5677;48.488;13.436;2023-09-08T05:04:29;19.90;66.80
11239;DHT22;5677;48.488;13.436;2023-09-08T05:06:56;19.90;67.30
11239;DHT22;5677;48.488;13.436;2023-09-08T05:09:25;19.90;67.30
11239;DHT22;5677;48.488;13.436;2023-09-08T05:11:51;19.90;67.30
11239;DHT22;5677;48.488;13.436;2023-09-08T05:14:18;19.90;67.30
11239;DHT22;5677;48.488;13.436;2023-09-08T05:16:45;19.90;67.30
11239;DHT22;5677;48.488;13.436;2023-09-08T05:19:15;19.90;67.30
11239;DHT22;5677;48.488;13.436;2023-09-08T05:21:42;19.90;67.30
11239;DHT22;5677;48.488;13.436;2023-09-08T05:24:09;19.90;67.30
11239;DHT22;5677;48.488;13.436;2023-09-08T05:26:38;19.90;67.40
11239;DHT22;5677;48.488;13.436;2023-09-08T05:29:07;19.90;67.30
11239;DHT22;5677;48.488;13.436;2023-09-08T05:31:35;19.90;67.30
11239;DHT22;5677;48.488;13.436;2023-09-08T05:34:02;19.90;67.30
11239;DHT22;5677;48.488;13.436;2023-09-08T05:36:29;19.90;67.30
11239;DHT22;5677;48.488;13.436;2023-09-08T05:38:59;19.90;67.30
11239;DHT22;5677;48.488;13.436;2023-09-08T05:41:26;20.00;66.20
11239;DHT22;5677;48.488;13.436;2023-09-08T05:43:55;19.90;67.30
11239;DHT22;5677;48.488;13.436;2023-09-08T05:46:22;20.00;67.20
11239;DHT22;5677;48.488;13.436;2023-09-08T05:48:49;19.90;67.20
11239;DHT22;5677;48.488;13.436;2023-09-08T05:51:16;19.90;67.20
11239;DHT22;5677;48.488;13.436;2023-09-08T05:53:43;20.00;67.20
11239;DHT22;5677;48.488;13.436;2023-09-08T05:56:10;20.00;67.20
11239;DHT22;5677;48.488;13.436;2023-09-08T05:58:37;20.00;67.20
11239;DHT22;5677;48.488;13.436;2023-09-08T06:01:05;20.00;67.10
11239;DHT22;5677;48.488;13.436;2023-09-08T06:03:32;20.00;67.10
11239;DHT22;5677;48.488;13.436;2023-09-08T06:05:59;20.00;67.10
11239;DHT22;5677;48.488;13.436;2023-09-08T06:08:26;20.00;67.10
11239;DHT22;5677;48.488;13.436;2023-09-08T06:10:53;20.00;67.00
11239;DHT22;5677;48.488;13.436;2023-09-08T06:13:20;20.10;67.10
11239;DHT22;5677;48.488;13.436;2023-09-08T06:15:47;20.00;67.00
11239;DHT22;5677;48.488;13.436;2023-09-08T06:18:15;20.10;67.00
11239;DHT22;5677;48.488;13.436;2023-09-08T06:20:46;20.10;67.00
11239;DHT22;5677;48.488;13.436;2023-09-08T06:23:13;20.10;65.90
11239;DHT22;5677;48.488;13.436;2023-09-08T06:25:41;20.20;66.90
11239;DHT22;5677;48.488;13.436;2023-09-08T06:28:08;20.20;65.80
11239;DHT22;5677;48.488;13.436;2023-09-08T06:30:35;20.20;66.70
11239;DHT22;5677;48.488;13.436;2023-09-08T06:33:02;20.20;66.60
11239;DHT22;5677;48.488;13.436;2023-09-08T06:35:31;20.30;66.60
11239;DHT22;5677;48.488;13.436;2023-09-08T06:37:59;20.30;66.50
11239;DHT22;5677;48.488;13.436;2023-09-08T06:40:28;20.30;66.40
11239;DHT22;5677;48.488;13.436;2023-09-08T06:42:56;20.40;65.20
11239;DHT22;5677;48.488;13.436;2023-09-08T06:45:23;20.40;66.10
11239;DHT22;5677;48.488;13.436;2023-09-08T06:47:50;20.40;66.10
11239;DHT22;5677;48.488;13.436;2023-09-08T06:50:20;20.40;65.90
11239;DHT22;5677;48.488;13.436;2023-09-08T06:52:48;20.50;66.00
11239;DHT22;5677;48.488;13.436;2023-09-08T06:55:16;20.50;65.80
11239;DHT22;5677;48.488;13.436;2023-09-08T06:57:43;20.50;65.80
11239;DHT22;5677;48.488;13.436;2023-09-08T07:00:11;20.60;65.60
11239;DHT22;5677;48.488;13.436;2023-09-08T07:02:39;20.60;64.40
11239;DHT22;5677;48.488;13.436;2023-09-08T07:05:07;20.60;65.40
11239;DHT22;5677;48.488;13.436;2023-09-08T07:07:35;20.60;65.40
11239;DHT22;5677;48.488;13.436;2023-09-08T07:10:04;20.70;64.30
11239;DHT22;5677;48.488;13.436;2023-09-08T07:12:32;20.70;64.20
11239;DHT22;5677;48.488;13.436;2023-09-08T07:14:59;20.70;65.30
11239;DHT22;5677;48.488;13.436;2023-09-08T07:17:26;20.70;65.10
11239;DHT22;5677;48.488;13.436;2023-09-08T07:19:53;20.80;65.10
11239;DHT22;5677;48.488;13.436;2023-09-08T07:22:20;20.80;65.00
11239;DHT22;5677;48.488;13.436;2023-09-08T07:24:47;20.80;64.90
11239;DHT22;5677;48.488;13.436;2023-09-08T07:27:15;20.80;64.80
11239;DHT22;5677;48.488;13.436;2023-09-08T07:29:43;20.80;64.80
11239;DHT22;5677;48.488;13.436;2023-09-08T07:32:10;20.80;64.80
11239;DHT22;5677;48.488;13.436;2023-09-08T07:34:37;20.90;64.80
11239;DHT22;5677;48.488;13.436;2023-09-08T07:37:04;20.90;64.80
11239;DHT22;5677;48.488;13.436;2023-09-08T07:39:31;20.90;64.70
11239;DHT22;5677;48.488;13.436;2023-09-08T07:41:58;20.90;64.70
11239;DHT22;5677;48.488;13.436;2023-09-08T07:44:27;20.90;64.60
11239;DHT22;5677;48.488;13.436;2023-09-08T07:46:54;20.90;64.60
11239;DHT22;5677;48.488;13.436;2023-09-08T07:49:22;20.90;64.40
11239;DHT22;5677;48.488;13.436;2023-09-08T07:51:49;20.90;64.40
11239;DHT22;5677;48.488;13.436;2023-09-08T07:54:16;21.00;64.30
11239;DHT22;5677;48.488;13.436;2023-09-08T07:56:43;21.00;64.30
11239;DHT22;5677;48.488;13.436;2023-09-08T07:59:10;21.00;64.30
11239;DHT22;5677;48.488;13.436;2023-09-08T08:01:38;21.00;64.20
11239;DHT22;5677;48.488;13.436;2023-09-08T08:04:05;21.00;64.10
11239;DHT22;5677;48.488;13.436;2023-09-08T08:06:32;21.10;64.20
11239;DHT22;5677;48.488;13.436;2023-09-08T08:08:59;21.10;64.10
11239;DHT22;5677;48.488;13.436;2023-09-08T08:11:26;21.10;64.10
11239;DHT22;5677;48.488;13.436;2023-09-08T08:13:53;21.10;64.10
11239;DHT22;5677;48.488;13.436;2023-09-08T08:16:22;21.10;64.00
11239;DHT22;5677;48.488;13.436;2023-09-08T08:18:52;21.10;63.20
11239;DHT22;5677;48.488;13.436;2023-09-08T08:21:19;21.10;62.90
11239;DHT22;5677;48.488;13.436;2023-09-08T08:23:48;21.20;63.90
11239;DHT22;5677;48.488;13.436;2023-09-08T08:26:15;21.20;64.60
11239;DHT22;5677;48.488;13.436;2023-09-08T08:28:43;21.20;63.90
11239;DHT22;5677;48.488;13.436;2023-09-08T08:31:10;21.20;63.80
11239;DHT22;5677;48.488;13.436;2023-09-08T08:33:37;21.20;63.80
11239;DHT22;5677;48.488;13.436;2023-09-08T08:36:06;21.20;63.80
11239;DHT22;5677;48.488;13.436;2023-09-08T08:38:35;21.20;62.70
11239;DHT22;5677;48.488;13.436;2023-09-08T08:41:03;21.20;63.80
11239;DHT22;5677;48.488;13.436;2023-09-08T08:43:31;21.20;62.80
11239;DHT22;5677;48.488;13.436;2023-09-08T08:45:59;21.20;62.80
11239;DHT22;5677;48.488;13.436;2023-09-08T08:48:29;21.20;62.80
11239;DHT22;5677;48.488;13.436;2023-09-08T08:50:58;21.10;63.90
11239;DHT22;5677;48.488;13.436;2023-09-08T08:53:29;21.10;62.90
11239;DHT22;5677;48.488;13.436;2023-09-08T08:55:58;21.10;62.90
11239;DHT22;5677;48.488;13.436;2023-09-08T08:58:27;21.20;62.90
11239;DHT22;5677;48.488;13.436;2023-09-08T09:00:54;21.10;64.10
11239;DHT22;5677;48.488;13.436;2023-09-08T09:03:25;21.10;63.10
11239;DHT22;5677;48.488;13.436;2023-09-08T09:05:53;21.10;63.00
11239;DHT22;5677;48.488;13.436;2023-09-08T09:08:20;21.10;64.20
11239;DHT22;5677;48.488;13.436;2023-09-08T09:10:52;21.10;63.10
11239;DHT22;5677;48.488;13.436;2023-09-08T09:13:19;21.10;64.20
11239;DHT22;5677;48.488;13.436;2023-09-08T09:15:48;21.10;64.30
11239;DHT22;5677;48.488;13.436;2023-09-08T09:18:16;21.10;64.00
11239;DHT22;5677;48.488;13.436;2023-09-08T09:20:54;21.10;64.30
11239;DHT22;5677;48.488;13.436;2023-09-08T09:23:29;21.10;63.30
11239;DHT22;5677;48.488;13.436;2023-09-08T09:25:59;21.10;63.40
11239;DHT22;5677;48.488;13.436;2023-09-08T09:28:29;21.10;63.40
11239;DHT22;5677;48.488;13.436;2023-09-08T09:30:56;21.10;63.40
11239;DHT22;5677;48.488;13.436;2023-09-08T09:33:24;21.10;64.50
11239;DHT22;5677;48.488;13.436;2023-09-08T09:35:53;21.10;64.50
11239;DHT22;5677;48.488;13.436;2023-09-08T09:38:21;21.10;63.40
11239;DHT22;5677;48.488;13.436;2023-09-08T09:40:49;21.10;63.40
11239;DHT22;5677;48.488;13.436;2023-09-08T09:43:21;21.10;64.60
11239;DHT22;5677;48.488;13.436;2023-09-08T09:45:49;21.10;63.50
11239;DHT22;5677;48.488;13.436;2023-09-08T09:48:19;21.10;64.60
11239;DHT22;5677;48.488;13.436;2023-09-08T09:50:48;21.10;63.60
11239;DHT22;5677;48.488;13.436;2023-09-08T09:53:16;21.10;64.70
11239;DHT22;5677;48.488;13.436;2023-09-08T09:55:45;21.10;63.60
11239;DHT22;5677;48.488;13.436;2023-09-08T09:58:12;21.10;63.50
11239;DHT22;5677;48.488;13.436;2023-09-08T10:00:42;21.10;64.60
11239;DHT22;5677;48.488;13.436;2023-09-08T10:03:13;21.10;64.60
11239;DHT22;5677;48.488;13.436;2023-09-08T10:05:40;21.10;64.70
11239;DHT22;5677;48.488;13.436;2023-09-08T10:08:08;21.10;64.60
11239;DHT22;5677;48.488;13.436;2023-09-08T10:10:35;21.10;64.70
11239;DHT22;5677;48.488;13.436;2023-09-08T10:13:06;21.10;63.60
11239;DHT22;5677;48.488;13.436;2023-09-08T10:15:33;21.10;64.50
11239;DHT22;5677;48.488;13.436;2023-09-08T10:18:04;21.10;64.80
11239;DHT22;5677;48.488;13.436;2023-09-08T10:20:33;21.10;63.70
11239;DHT22;5677;48.488;13.436;2023-09-08T10:23:05;21.10;63.70
11239;DHT22;5677;48.488;13.436;2023-09-08T10:25:37;21.10;63.70
11239;DHT22;5677;48.488;13.436;2023-09-08T10:28:09;21.10;63.70
11239;DHT22;5677;48.488;13.436;2023-09-08T10:30:37;21.10;64.80
11239;DHT22;5677;48.488;13.436;2023-09-08T10:33:06;21.10;64.80
11239;DHT22;5677;48.488;13.436;2023-09-08T10:35:34;21.10;63.80
11239;DHT22;5677;48.488;13.436;2023-09-08T10:38:22;21.10;63.80
11239;DHT22;5677;48.488;13.436;2023-09-08T10:40:50;21.10;63.90
11239;DHT22;5677;48.488;13.436;2023-09-08T10:43:18;21.10;64.90
11239;DHT22;5677;48.488;13.436;2023-09-08T10:45:45;21.10;63.90
11239;DHT22;5677;48.488;13.436;2023-09-08T10:48:14;21.10;64.90
11239;DHT22;5677;48.488;13.436;2023-09-08T10:50:42;21.10;64.90
11239;DHT22;5677;48.488;13.436;2023-09-08T10:53:14;21.10;64.80
11239;DHT22;5677;48.488;13.436;2023-09-08T10:55:43;21.10;63.90
11239;DHT22;5677;48.488;13.436;2023-09-08T10:58:18;21.20;63.90
11239;DHT22;5677;48.488;13.436;2023-09-08T11:00:47;21.10;63.90
11239;DHT22;5677;48.488;13.436;2023-09-08T11:03:27;21.20;63.90
11239;DHT22;5677;48.488;13.436;2023-09-08T11:06:09;21.20;64.00
11239;DHT22;5677;48.488;13.436;2023-09-08T11:08:40;21.20;65.00
11239;DHT22;5677;48.488;13.436;2023-09-08T11:11:10;21.20;63.90
11239;DHT22;5677;48.488;13.436;2023-09-08T11:13:38;21.20;64.00
11239;DHT22;5677;48.488;13.436;2023-09-08T11:16:06;21.20;65.10
11239;DHT22;5677;48.488;13.436;2023-09-08T11:18:35;21.20;64.90
11239;DHT22;5677;48.488;13.436;2023-09-08T11:21:03;21.20;65.00
11239;DHT22;5677;48.488;13.436;2023-09-08T11:23:34;21.20;64.00
11239;DHT22;5677;48.488;13.436;2023-09-08T11:26:01;21.20;65.10
11239;DHT22;5677;48.488;13.436;2023-09-08T11:28:28;21.20;65.10
11239;DHT22;5677;48.488;13.436;2023-09-08T11:30:55;21.20;65.90
11239;DHT22;5677;48.488;13.436;2023-09-08T11:33:23;21.20;65.10
11239;DHT22;5677;48.488;13.436;2023-09-08T11:35:53;21.20;65.10
11239;DHT22;5677;48.488;13.436;2023-09-08T11:38:24;21.20;64.00
11239;DHT22;5677;48.488;13.436;2023-09-08T11:40:53;21.20;64.00
11239;DHT22;5677;48.488;13.436;2023-09-08T11:43:20;21.20;64.10
11239;DHT22;5677;48.488;13.436;2023-09-08T11:45:48;21.20;64.00
11239;DHT22;5677;48.488;13.436;2023-09-08T11:48:15;21.20;64.00
11239;DHT22;5677;48.488;13.436;2023-09-08T11:50:43;21.20;64.10
11239;DHT22;5677;48.488;13.436;2023-09-08T11:53:11;21.20;64.90
11239;DHT22;5677;48.488;13.436;2023-09-08T11:55:38;21.20;65.10
11239;DHT22;5677;48.488;13.436;2023-09-08T11:58:06;21.20;65.10
11239;DHT22;5677;48.488;13.436;2023-09-08T12:00:33;21.20;64.60
11239;DHT22;5677;48.488;13.436;2023-09-08T12:03:10;21.20;64.10
11239;DHT22;5677;48.488;13.436;2023-09-08T12:05:37;21.20;64.10
11239;DHT22;5677;48.488;13.436;2023-09-08T12:08:06;21.20;64.00
11239;DHT22;5677;48.488;13.436;2023-09-08T12:10:39;21.30;65.30
11239;DHT22;5677;48.488;13.436;2023-09-08T12:13:07;21.30;64.20
11239;DHT22;5677;48.488;13.436;2023-09-08T12:15:36;21.30;64.20
11239;DHT22;5677;48.488;13.436;2023-09-08T12:18:07;21.30;64.10
11239;DHT22;5677;48.488;13.436;2023-09-08T12:20:36;21.30;64.10
11239;DHT22;5677;48.488;13.436;2023-09-08T12:23:05;21.30;64.20
11239;DHT22;5677;48.488;13.436;2023-09-08T12:25:45;21.30;64.10
11239;DHT22;5677;48.488;13.436;2023-09-08T12:28:13;21.30;64.20
11239;DHT22;5677;48.488;13.436;2023-09-08T12:30:40;21.30;65.30
11239;DHT22;5677;48.488;13.436;2023-09-08T12:33:07;21.30;65.30
11239;DHT22;5677;48.488;13.436;2023-09-08T12:35:36;21.30;65.10
11239;DHT22;5677;48.488;13.436;2023-09-08T12:38:04;21.30;65.30
11239;DHT22;5677;48.488;13.436;2023-09-08T12:40:34;21.30;64.20
11239;DHT22;5677;48.488;13.436;2023-09-08T12:43:04;21.30;65.00
11239;DHT22;5677;48.488;13.436;2023-09-08T12:45:32;21.30;64.20
11239;DHT22;5677;48.488;13.436;2023-09-08T12:48:00;21.30;65.30
11239;DHT22;5677;48.488;13.436;2023-09-08T12:50:29;21.30;64.20
11239;DHT22;5677;48.488;13.436;2023-09-08T12:52:56;21.30;64.20
11239;DHT22;5677;48.488;13.436;2023-09-08T12:55:23;21.30;65.30
11239;DHT22;5677;48.488;13.436;2023-09-08T12:57:51;21.30;65.30
11239;DHT22;5677;48.488;13.436;2023-09-08T13:00:21;21.30;64.20
11239;DHT22;5677;48.488;13.436;2023-09-08T13:02:49;21.30;64.20
11239;DHT22;5677;48.488;13.436;2023-09-08T13:05:16;21.30;65.30
11239;DHT22;5677;48.488;13.436;2023-09-08T13:07:44;21.30;65.20
11239;DHT22;5677;48.488;13.436;2023-09-08T13:10:11;21.30;65.30
11239;DHT22;5677;48.488;13.436;2023-09-08T13:12:38;21.40;65.20
11239;DHT22;5677;48.488;13.436;2023-09-08T13:15:06;21.40;65.30
11239;DHT22;5677;48.488;13.436;2023-09-08T13:17:34;21.30;64.10
11239;DHT22;5677;48.488;13.436;2023-09-08T13:20:02;21.40;65.30
11239;DHT22;5677;48.488;13.436;2023-09-08T13:22:29;21.40;65.10
11239;DHT22;5677;48.488;13.436;2023-09-08T13:24:56;21.40;65.20
11239;DHT22;5677;48.488;13.436;2023-09-08T13:27:23;21.40;65.20
11239;DHT22;5677;48.488;13.436;2023-09-08T13:29:52;21.40;65.20
11239;DHT22;5677;48.488;13.436;2023-09-08T13:32:20;21.40;64.20
11239;DHT22;5677;48.488;13.436;2023-09-08T13:34:49;21.40;65.30
11239;DHT22;5677;48.488;13.436;2023-09-08T13:37:16;21.40;65.20
11239;DHT22;5677;48.488;13.436;2023-09-08T13:39:43;21.40;65.20
11239;DHT22;5677;48.488;13.436;2023-09-08T13:42:10;21.40;65.20
11239;DHT22;5677;48.488;13.436;2023-09-08T13:44:37;21.40;65.20
11239;DHT22;5677;48.488;13.436;2023-09-08T13:47:04;21.40;65.20
11239;DHT22;5677;48.488;13.436;2023-09-08T13:49:31;21.40;65.20
11239;DHT22;5677;48.488;13.436;2023-09-08T13:51:59;21.40;65.10
11239;DHT22;5677;48.488;13.436;2023-09-08T13:54:26;21.40;65.20
11239;DHT22;5677;48.488;13.436;2023-09-08T13:57:00;21.40;65.10
11239;DHT22;5677;48.488;13.436;2023-09-08T13:59:29;21.40;64.10
11239;DHT22;5677;48.488;13.436;2023-09-08T14:01:57;21.40;64.10
11239;DHT22;5677;48.488;13.436;2023-09-08T14:04:24;21.40;65.10
11239;DHT22;5677;48.488;13.436;2023-09-08T14:06:52;21.40;65.20
11239;DHT22;5677;48.488;13.436;2023-09-08T14:09:20;21.40;65.10
11239;DHT22;5677;48.488;13.436;2023-09-08T14:11:47;21.40;65.10
11239;DHT22;5677;48.488;13.436;2023-09-08T14:14:14;21.40;65.10
11239;DHT22;5677;48.488;13.436;2023-09-08T14:16:41;21.40;65.20
11239;DHT22;5677;48.488;13.436;2023-09-08T14:19:08;21.40;65.10
11239;DHT22;5677;48.488;13.436;2023-09-08T14:21:35;21.40;65.10
11239;DHT22;5677;48.488;13.436;2023-09-08T14:24:03;21.40;65.10
11239;DHT22;5677;48.488;13.436;2023-09-08T14:26:31;21.40;64.10
11239;DHT22;5677;48.488;13.436;2023-09-08T14:28:58;21.50;65.30
11239;DHT22;5677;48.488;13.436;2023-09-08T14:31:25;21.50;65.30
11239;DHT22;5677;48.488;13.436;2023-09-08T14:33:52;21.50;65.30
11239;DHT22;5677;48.488;13.436;2023-09-08T14:36:19;21.40;65.10
11239;DHT22;5677;48.488;13.436;2023-09-08T14:38:46;21.50;65.30
11239;DHT22;5677;48.488;13.436;2023-09-08T14:41:13;21.40;65.20
11239;DHT22;5677;48.488;13.436;2023-09-08T14:43:42;21.40;65.20
11239;DHT22;5677;48.488;13.436;2023-09-08T14:46:09;21.50;65.30
11239;DHT22;5677;48.488;13.436;2023-09-08T14:48:36;21.50;65.30
11239;DHT22;5677;48.488;13.436;2023-09-08T14:51:03;21.40;65.20
11239;DHT22;5677;48.488;13.436;2023-09-08T14:53:30;21.40;65.20
11239;DHT22;5677;48.488;13.436;2023-09-08T14:55:57;21.50;65.30
11239;DHT22;5677;48.488;13.436;2023-09-08T14:58:24;21.40;65.20
11239;DHT22;5677;48.488;13.436;2023-09-08T15:00:58;21.50;65.30
11239;DHT22;5677;48.488;13.436;2023-09-08T15:03:29;21.40;65.20
11239;DHT22;5677;48.488;13.436;2023-09-08T15:05:57;21.40;64.10
11239;DHT22;5677;48.488;13.436;2023-09-08T15:08:24;21.50;65.30
11239;DHT22;5677;48.488;13.436;2023-09-08T15:10:52;21.40;65.20
11239;DHT22;5677;48.488;13.436;2023-09-08T15:13:19;21.40;65.20
11239;DHT22;5677;48.488;13.436;2023-09-08T15:15:46;21.40;65.30
11239;DHT22;5677;48.488;13.436;2023-09-08T15:18:14;21.40;65.30
11239;DHT22;5677;48.488;13.436;2023-09-08T15:20:50;21.40;65.30
11239;DHT22;5677;48.488;13.436;2023-09-08T15:23:17;21.40;64.20
11239;DHT22;5677;48.488;13.436;2023-09-08T15:25:50;21.40;65.30
11239;DHT22;5677;48.488;13.436;2023-09-08T15:28:18;21.40;64.30
11239;DHT22;5677;48.488;13.436;2023-09-08T15:30:47;21.40;64.60
11239;DHT22;5677;48.488;13.436;2023-09-08T15:33:16;21.40;64.30
11239;DHT22;5677;48.488;13.436;2023-09-08T15:35:43;21.40;64.30
11239;DHT22;5677;48.488;13.436;2023-09-08T15:38:10;21.40;65.40